Marian S Heiskell — WDD7538 — position and weather

sailwx.info

Track history (hours):
 
Tides and Currents Weather Stations Pressure Air Temp Water Temp Dewpoint Dewpoint Depression Visibility Wind Speed Wind Dir Waves Ship Positions

Marian S Heiskell

Owner: NYCL Acquisition LLC, Brooklyn, NY. More information available from US FCC via Universal Licensing System and Coast Guard Vessel Documentation Center.

Last reported at 2018-Jun-21 23:15 UTC. Time now 2018-Jun-21 23:59 UTC.
Position N 40°40' W 074°01'.

Length 20 m; draft 2.3 m.

Type: Cargo ship. MMSI: 367187770.

Date/timePositionNaut miles runAvg speedWind from/ knotsBaromVisibWave heightAir tempDewpointWater temp
2018-Jun-21 23:15N 40°40' W 074°01'0 0.0
2018-Jun-21 23:05N 40°40' W 074°01'225.8
2018-Jun-21 23:00N 40°42' W 074°00'22240.1
2018-Jun-21 23:00N 40°40' W 074°01'2 4.7
2018-Jun-21 22:30N 40°42' W 073°59'344.4
2018-Jun-21 22:26N 40°46' W 074°00'4 8.3
2018-Jun-21 22:00N 40°42' W 073°60'370.6
2018-Jun-21 21:58N 40°45' W 073°58'2 4.9
2018-Jun-21 21:30N 40°44' W 074°01'23955.7
2018-Jun-21 21:30N 40°42' W 074°00'2 3.6
2018-Jun-21 21:00N 40°42' W 074°02'2100.0
2018-Jun-21 20:59N 40°42' W 074°00'1 1.4
2018-Jun-21 20:30N 40°42' W 074°01'31050.0
2018-Jun-21 20:30N 40°45' W 074°01'4 7.6
2018-Jun-21 20:01N 40°41' W 074°03'5519.9
2018-Jun-21 20:00N 40°46' W 074°00'4 7.3
2018-Jun-21 19:30N 40°42' W 074°01'13668.0
2018-Jun-21 19:30N 40°42' W 073°60'3 5.7
2018-Jun-21 19:01N 40°45' W 074°01'3 5.5
2018-Jun-21 18:31N 40°42' W 074°00'23861.6
2018-Jun-21 18:30N 40°41' W 074°03'5 8.5
2018-Jun-21 17:57N 40°46' W 074°00'4 8.1
2018-Jun-21 17:30N 40°42' W 073°60'3 5.7
2018-Jun-21 17:01N 40°45' W 074°01'4 7.7
2018-Jun-21 16:31N 40°41' W 074°03'1 2.9
2018-Jun-21 16:00N 40°42' W 074°01'2 4.7
2018-Jun-21 15:30N 40°45' W 074°01'2 4.6
2018-Jun-21 15:00N 40°42' W 074°00'3 5.8
2018-Jun-21 14:24N 40°46' W 074°00'514.1
2018-Jun-21 14:00N 40°40' W 074°01'0 0.3
2018-Jun-21 13:31N 40°40' W 074°01'0 0.0
2018-Jun-20 23:10N 40°40' W 074°01'0 0.0
2018-Jun-20 23:00N 40°40' W 074°01'2 3.8
2018-Jun-20 22:31N 40°42' W 074°01'0 1.0
2018-Jun-20 22:00N 40°42' W 074°02'1 1.1
2018-Jun-20 21:30N 40°42' W 074°01'4 7.1
2018-Jun-20 21:01N 40°46' W 074°01'3 6.7
2018-Jun-20 20:31N 40°42' W 074°00'3 5.7
2018-Jun-20 19:54N 40°46' W 074°00'410.4
2018-Jun-20 19:30N 40°42' W 074°01'1 1.6
2018-Jun-20 19:00N 40°42' W 074°01'0 0.6
2018-Jun-20 18:31N 40°43' W 074°02'1 2.3
2018-Jun-20 18:00N 40°42' W 074°00'3 6.6
2018-Jun-20 17:29N 40°46' W 074°00'4 7.6
2018-Jun-20 17:00N 40°42' W 073°60'3 5.4
2018-Jun-20 16:31N 40°45' W 074°01'4 7.6
2018-Jun-20 16:01N 40°41' W 074°03'2 3.1
2018-Jun-20 15:31N 40°42' W 074°01'2 3.5
2018-Jun-20 15:00N 40°44' W 074°01'2 3.6
2018-Jun-20 14:30N 40°42' W 074°00'3 5.6
2018-Jun-20 13:53N 40°46' W 074°00'514.6
2018-Jun-20 13:30N 40°40' W 074°01'0 0.0
2018-Jun-20 13:00N 40°40' W 074°01'0 0.0
2018-Jun-20 12:30N 40°40' W 074°01'0 0.0
2018-Jun-20 00:13N 40°40' W 074°01'0 0.0
2018-Jun-20 00:00N 40°40' W 074°01'2 4.1
2018-Jun-19 23:30N 40°42' W 074°00'282.4
2018-Jun-19 23:29N 40°40' W 074°01'0 0.0
2018-Jun-19 23:00N 40°40' W 074°01'1 3.0
2018-Jun-19 22:31N 40°41' W 074°03'1160.7
2018-Jun-19 22:30N 40°40' W 074°01'2 3.8
2018-Jun-19 22:01N 40°42' W 074°01'26634.6
2018-Jun-19 22:00N 40°40' W 074°01'3 6.5
2018-Jun-19 21:30N 40°44' W 074°01'3 6.5
2018-Jun-19 21:00N 40°40' W 074°01'22443.0
2018-Jun-19 21:00N 40°42' W 074°00'2 4.0
2018-Jun-19 20:29N 40°40' W 074°01'5487.0
2018-Jun-19 20:29N 40°46' W 074°00'4 7.5
2018-Jun-19 20:00N 40°42' W 073°60'2748.9
2018-Jun-19 20:00N 40°40' W 074°01'4 8.8
2018-Jun-19 19:30N 40°45' W 074°01'4 8.8
2018-Jun-19 19:00N 40°40' W 074°01'2 4.2
2018-Jun-19 18:31N 40°42' W 074°00'21869.0
2018-Jun-19 18:30N 40°40' W 074°01'0 0.0
2018-Jun-19 18:00N 40°40' W 074°01'569.1
2018-Jun-19 17:55N 40°46' W 074°00'4 8.6
2018-Jun-19 17:31N 40°42' W 073°60'22448.5
2018-Jun-19 17:30N 40°40' W 074°01'3 6.9
2018-Jun-19 17:00N 40°44' W 074°01'31034.5
2018-Jun-19 17:00N 40°40' W 074°01'1 2.9
2018-Jun-19 16:30N 40°41' W 074°03'11758.1
2018-Jun-19 16:30N 40°40' W 074°01'0 0.0
2018-Jun-19 16:00N 40°40' W 074°01'26503.3
2018-Jun-19 16:00N 40°42' W 074°01'2 4.9
2018-Jun-19 15:30N 40°45' W 074°01'4306.3
2018-Jun-19 15:29N 40°40' W 074°01'0 0.0
2018-Jun-19 15:00N 40°40' W 074°01'2666.3
2018-Jun-19 15:00N 40°42' W 074°00'2 4.1
2018-Jun-19 14:30N 40°40' W 074°01'552.5
2018-Jun-19 14:24N 40°46' W 074°00'513.6
2018-Jun-19 14:00N 40°40' W 074°01'0 3.9
2018-Jun-19 14:00N 40°40' W 074°01'0 0.0
2018-Jun-19 13:30N 40°40' W 074°01'027.1
2018-Jun-19 13:30N 40°40' W 074°01'0 0.0
2018-Jun-19 13:00N 40°40' W 074°01'013.6
2018-Jun-19 13:00N 40°40' W 074°01'0 0.0
2018-Jun-19 12:30N 40°40' W 074°01'0 6.8
2018-Jun-19 12:30N 40°40' W 074°01'0 0.0
2018-Jun-19 12:00N 40°40' W 074°01'0 0.4
2018-Jun-19 11:59N 40°40' W 074°01'0 0.0
2018-Jun-19 11:30N 40°40' W 074°01'0 5.6
2018-Jun-19 11:30N 40°40' W 074°01'0 0.0
2018-Jun-19 11:00N 40°40' W 074°01'0 2.7
2018-Jun-19 11:00N 40°40' W 074°01'0 0.0
2018-Jun-19 10:30N 40°40' W 074°01'0 3.9
2018-Jun-19 10:30N 40°40' W 074°01'0 0.0
2018-Jun-19 10:01N 40°40' W 074°01'0 5.4
2018-Jun-19 10:00N 40°40' W 074°01'0 0.0
2018-Jun-19 09:31N 40°40' W 074°01'018.1
2018-Jun-19 09:30N 40°40' W 074°01'0 0.0
2018-Jun-19 09:01N 40°40' W 074°01'0 0.0
2018-Jun-19 08:30N 40°40' W 074°01'0 0.0
2018-Jun-19 08:00N 40°40' W 074°01'0 0.0
2018-Jun-19 07:30N 40°40' W 074°01'0 0.0
2018-Jun-19 07:00N 40°40' W 074°01'0 0.0
2018-Jun-19 06:30N 40°40' W 074°01'0 0.0
2018-Jun-19 06:01N 40°40' W 074°01'0 0.0
2018-Jun-19 05:30N 40°40' W 074°01'0 0.0
2018-Jun-19 05:01N 40°40' W 074°01'0 0.0
2018-Jun-19 04:30N 40°40' W 074°01'0 0.0
2018-Jun-19 04:00N 40°40' W 074°01'0 0.0
2018-Jun-19 03:30N 40°40' W 074°01'0 0.0
2018-Jun-19 03:00N 40°40' W 074°01'0 0.0
2018-Jun-19 02:31N 40°40' W 074°01'0 0.0
2018-Jun-19 02:00N 40°40' W 074°01'0 0.0
2018-Jun-19 01:30N 40°40' W 074°01'0 0.0
2018-Jun-19 01:00N 40°40' W 074°01'0 0.0
2018-Jun-19 00:30N 40°40' W 074°01'0 0.0
2018-Jun-19 00:00N 40°40' W 074°01'0 0.0
2018-Jun-18 23:31N 40°40' W 074°01'0 0.1
2018-Jun-18 23:23N 40°40' W 074°01'0 0.0
2018-Jun-18 23:00N 40°40' W 074°01'22205.2
2018-Jun-18 23:00N 40°42' W 074°01'1 2.2
2018-Jun-18 22:31N 40°43' W 074°02'310503.8
2018-Jun-18 22:31N 40°40' W 074°01'2 4.1
2018-Jun-18 22:00N 40°42' W 074°00'2160.0
2018-Jun-18 22:00N 40°40' W 074°01'0 0.0
2018-Jun-18 21:30N 40°40' W 074°01'5101.3
2018-Jun-18 21:27N 40°46' W 074°00'512.2
2018-Jun-18 21:00N 40°40' W 074°01'21050.4
2018-Jun-18 21:00N 40°42' W 073°60'3 5.1
2018-Jun-18 20:31N 40°45' W 074°01'415098.6
2018-Jun-18 20:31N 40°40' W 074°01'1 2.9
2018-Jun-18 20:01N 40°41' W 074°03'12631.8
2018-Jun-18 20:00N 40°40' W 074°01'2 3.7
2018-Jun-18 19:31N 40°42' W 074°01'26655.7
2018-Jun-18 19:30N 40°40' W 074°01'3 5.1
2018-Jun-18 19:01N 40°43' W 074°01'3221.8
2018-Jun-18 19:00N 40°40' W 074°01'2 3.7
2018-Jun-18 18:31N 40°42' W 074°00'23238.9
2018-Jun-18 18:30N 40°40' W 074°01'0 0.0
2018-Jun-18 18:00N 40°40' W 074°01'5203.5
2018-Jun-18 17:59N 40°46' W 074°00'4 7.5
2018-Jun-18 17:31N 40°42' W 073°60'2579.1
2018-Jun-18 17:30N 40°40' W 074°01'0 0.0
2018-Jun-18 17:00N 40°40' W 074°01'534.2
2018-Jun-18 16:51N 40°46' W 074°00'412.8
2018-Jun-18 16:31N 40°42' W 074°02'12662.0
2018-Jun-18 16:30N 40°40' W 074°01'0 0.0
2018-Jun-18 16:01N 40°40' W 074°01'0 0.0
2018-Jun-18 15:30N 40°40' W 074°01'415876.0
2018-Jun-18 15:30N 40°45' W 074°01'3 5.1
2018-Jun-18 15:00N 40°42' W 074°00'3 5.8
2018-Jun-18 14:24N 40°46' W 074°00'513.6
2018-Jun-18 14:00N 40°40' W 074°01'0 0.0
2018-Jun-18 13:30N 40°40' W 074°01'0 0.0
2018-Jun-18 13:00N 40°40' W 074°01'0 0.0
2018-Jun-18 12:30N 40°40' W 074°01'0 0.0
2018-Jun-18 12:00N 40°40' W 074°01'0 0.0
2018-Jun-18 11:30N 40°40' W 074°01'0 0.0
2018-Jun-18 01:41N 40°40' W 074°01'0 0.0
2018-Jun-18 01:30N 40°40' W 074°01'0 0.4
2018-Jun-18 01:01N 40°40' W 074°01'2 4.0
2018-Jun-18 00:30N 40°42' W 074°00'2 3.1
2018-Jun-18 00:00N 40°41' W 074°01'0 0.6
2018-Jun-17 23:30N 40°41' W 074°01'2 3.6
2018-Jun-17 23:00N 40°42' W 074°00'2 4.0
2018-Jun-17 22:30N 40°40' W 074°01'2 3.5
2018-Jun-17 22:00N 40°42' W 074°00'1 2.8
2018-Jun-17 21:30N 40°41' W 074°01'0 0.1
2018-Jun-17 21:00N 40°41' W 074°01'2 2.6
2018-Jun-17 20:25N 40°42' W 074°00'2 4.9
2018-Jun-17 20:00N 40°40' W 074°01'2 3.2
2018-Jun-17 19:28N 40°42' W 074°00'1 2.9
2018-Jun-17 19:00N 40°41' W 074°01'0 0.8
2018-Jun-17 18:30N 40°40' W 074°01'2 3.7
2018-Jun-17 17:59N 40°42' W 074°00'2 4.2
2018-Jun-17 17:30N 40°40' W 074°01'2 4.0
2018-Jun-17 17:00N 40°42' W 074°00'2 3.5
2018-Jun-17 16:30N 40°41' W 074°01'0 0.4
2018-Jun-17 16:00N 40°41' W 074°01'1 2.4
2018-Jun-17 15:25N 40°42' W 074°00'2 4.4
2018-Jun-17 14:59N 40°40' W 074°01'0 0.0
2018-Jun-16 23:13N 40°40' W 074°01'2 8.7
2018-Jun-16 23:00N 40°42' W 074°01'3 5.0
2018-Jun-16 22:30N 40°45' W 074°01'2 5.0
2018-Jun-16 22:01N 40°42' W 074°00'3 6.1
2018-Jun-16 21:26N 40°46' W 074°00'4 8.3
2018-Jun-16 21:00N 40°42' W 073°60'2 4.3
2018-Jun-16 20:31N 40°44' W 074°01'3 5.9
2018-Jun-16 20:00N 40°41' W 074°02'1 2.7
2018-Jun-16 19:31N 40°42' W 074°01'2 3.7
2018-Jun-16 19:01N 40°44' W 074°01'2 3.9
2018-Jun-16 18:30N 40°42' W 074°00'3 5.9
2018-Jun-16 17:55N 40°46' W 074°00'4 8.7
2018-Jun-16 17:30N 40°42' W 073°60'2 3.7
2018-Jun-16 17:01N 40°44' W 074°01'3 5.1
2018-Jun-16 16:30N 40°41' W 074°02'1 2.6
2018-Jun-16 16:01N 40°42' W 074°01'3 5.4
2018-Jun-16 15:31N 40°45' W 074°01'3 5.4
2018-Jun-16 15:01N 40°42' W 074°00'3 4.7
2018-Jun-16 14:16N 40°46' W 074°00'414.9
2018-Jun-16 14:01N 40°42' W 074°02'2 3.4
2018-Jun-16 13:30N 40°40' W 074°01'0 0.0
2018-Jun-15 22:09N 40°40' W 074°01'1 8.1
2018-Jun-15 22:01N 40°42' W 074°01'4 4.3
2018-Jun-15 21:00N 40°46' W 074°00'3 6.9
2018-Jun-15 20:30N 40°42' W 074°00'2 4.8
2018-Jun-15 20:01N 40°41' W 074°03'0 0.1
2018-Jun-15 19:31N 40°41' W 074°03'0 0.7
2018-Jun-15 19:00N 40°41' W 074°03'2 4.4
2018-Jun-15 18:30N 40°42' W 074°00'2 4.1
2018-Jun-15 18:00N 40°40' W 074°01'0 0.0
2018-Jun-15 16:24N 40°40' W 074°01'511.7
2018-Jun-15 16:00N 40°36' W 074°02'5 0.3
2018-Jun-15 00:47N 40°40' W 074°01'2 8.6
2018-Jun-15 00:30N 40°42' W 073°59'1 1.3
2018-Jun-15 00:00N 40°42' W 074°00'1 2.4
2018-Jun-14 23:30N 40°42' W 073°59'1 2.2
2018-Jun-14 23:00N 40°42' W 074°00'1 2.2
2018-Jun-14 22:30N 40°42' W 073°59'1 2.1
2018-Jun-14 22:00N 40°42' W 074°00'0 0.3
2018-Jun-14 21:30N 40°42' W 073°60'2 4.4
2018-Jun-14 21:00N 40°40' W 074°01'0 0.1
2018-Jun-14 20:31N 40°40' W 074°01'0 0.0
2018-Jun-14 20:01N 40°40' W 074°01'0 0.0
2018-Jun-14 16:34N 40°40' W 074°01'0 0.0
2018-Jun-14 16:30N 40°40' W 074°01'0 0.0
2018-Jun-14 16:01N 40°40' W 074°01'0 0.0
2018-Jun-14 15:30N 40°40' W 074°01'0 0.0
2018-Jun-14 15:00N 40°40' W 074°01'0 0.0
2018-Jun-14 14:30N 40°40' W 074°01'0 0.0
2018-Jun-14 14:00N 40°40' W 074°01'0 0.0
2018-Jun-14 13:30N 40°40' W 074°01'0 0.0
2018-Jun-14 13:00N 40°40' W 074°01'0 0.0
2018-Jun-14 12:30N 40°40' W 074°01'0 0.0
2018-Jun-14 12:00N 40°40' W 074°01'0 0.0
2018-Jun-14 11:30N 40°40' W 074°01'0 0.0
2018-Jun-14 11:01N 40°40' W 074°01'0 0.0
2018-Jun-14 10:30N 40°40' W 074°01'0 0.0
2018-Jun-13 17:09N 40°40' W 074°01'0 0.0
2018-Jun-13 17:01N 40°40' W 074°01'0 0.0
2018-Jun-13 16:31N 40°40' W 074°01'0 0.0
2018-Jun-13 14:39N 40°40' W 074°01'0 0.0
2018-Jun-13 14:31N 40°40' W 074°01'0 0.0
2018-Jun-13 14:00N 40°40' W 074°01'0 0.0
2018-Jun-13 13:30N 40°40' W 074°01'0 0.0
2018-Jun-13 13:00N 40°40' W 074°01'0 0.0
2018-Jun-13 12:30N 40°40' W 074°01'0 0.0
2018-Jun-13 12:01N 40°40' W 074°01'0 0.0
2018-Jun-13 01:17N 40°40' W 074°01'310.6
2018-Jun-13 01:01N 40°43' W 074°01'9 3.1
2018-Jun-12 22:01N 40°52' W 073°56'126.7
2018-Jun-12 22:00N 40°51' W 073°57'612.5
2018-Jun-12 21:30N 40°46' W 074°00'0 0.0
2018-Jun-12 20:52N 40°46' W 074°00'3 8.8
2018-Jun-12 20:31N 40°43' W 074°01'1 2.8
2018-Jun-12 20:00N 40°42' W 074°02'1 2.4
2018-Jun-12 19:30N 40°42' W 074°01'2 4.7
2018-Jun-12 19:01N 40°45' W 074°01'2 4.7
2018-Jun-12 18:31N 40°42' W 074°00'3 6.1
2018-Jun-12 17:56N 40°46' W 074°00'4 8.2
2018-Jun-12 17:30N 40°42' W 073°60'3 5.8
2018-Jun-12 17:01N 40°45' W 074°01'4 7.3
2018-Jun-12 16:31N 40°41' W 074°02'2 5.0
2018-Jun-12 16:00N 40°44' W 074°01'1 1.4
2018-Jun-12 15:30N 40°43' W 074°02'1 2.7
2018-Jun-12 15:01N 40°42' W 074°01'4 7.8
2018-Jun-12 14:30N 40°46' W 074°00'511.0
2018-Jun-12 14:00N 40°40' W 074°01'0 0.0
2018-Jun-12 13:30N 40°40' W 074°01'  
Track history (hours):
 
Tides and Currents Weather Stations Pressure Air Temp Water Temp Dewpoint Dewpoint Depression Visibility Wind Speed Wind Dir Waves Ship Positions

Marian S Heiskell

Owner: NYCL Acquisition LLC, Brooklyn, NY. More information available from US FCC via Universal Licensing System and Coast Guard Vessel Documentation Center.

Last reported at 2018-Jun-21 23:15 UTC. Time now 2018-Jun-21 23:59 UTC.
Position N 40°40' W 074°01'.

Length 20 m; draft 2.3 m.

Type: Cargo ship. MMSI: 367187770.

Date/timePositionNaut miles runAvg speedWind from/ knotsBaromVisibWave heightAir tempDewpointWater temp
2018-Jun-21 23:15N 40°40' W 074°01'0 0.0
2018-Jun-21 23:05N 40°40' W 074°01'225.8
2018-Jun-21 23:00N 40°42' W 074°00'22240.1
2018-Jun-21 23:00N 40°40' W 074°01'2 4.7
2018-Jun-21 22:30N 40°42' W 073°59'344.4
2018-Jun-21 22:26N 40°46' W 074°00'4 8.3
2018-Jun-21 22:00N 40°42' W 073°60'370.6
2018-Jun-21 21:58N 40°45' W 073°58'2 4.9
2018-Jun-21 21:30N 40°44' W 074°01'23955.7
2018-Jun-21 21:30N 40°42' W 074°00'2 3.6
2018-Jun-21 21:00N 40°42' W 074°02'2100.0
2018-Jun-21 20:59N 40°42' W 074°00'1 1.4
2018-Jun-21 20:30N 40°42' W 074°01'31050.0
2018-Jun-21 20:30N 40°45' W 074°01'4 7.6
2018-Jun-21 20:01N 40°41' W 074°03'5519.9
2018-Jun-21 20:00N 40°46' W 074°00'4 7.3
2018-Jun-21 19:30N 40°42' W 074°01'13668.0
2018-Jun-21 19:30N 40°42' W 073°60'3 5.7
2018-Jun-21 19:01N 40°45' W 074°01'3 5.5
2018-Jun-21 18:31N 40°42' W 074°00'23861.6
2018-Jun-21 18:30N 40°41' W 074°03'5 8.5
2018-Jun-21 17:57N 40°46' W 074°00'4 8.1
2018-Jun-21 17:30N 40°42' W 073°60'3 5.7
2018-Jun-21 17:01N 40°45' W 074°01'4 7.7
2018-Jun-21 16:31N 40°41' W 074°03'1 2.9
2018-Jun-21 16:00N 40°42' W 074°01'2 4.7
2018-Jun-21 15:30N 40°45' W 074°01'2 4.6
2018-Jun-21 15:00N 40°42' W 074°00'3 5.8
2018-Jun-21 14:24N 40°46' W 074°00'514.1
2018-Jun-21 14:00N 40°40' W 074°01'0 0.3
2018-Jun-21 13:31N 40°40' W 074°01'0 0.0
2018-Jun-20 23:10N 40°40' W 074°01'0 0.0
2018-Jun-20 23:00N 40°40' W 074°01'2 3.8
2018-Jun-20 22:31N 40°42' W 074°01'0 1.0
2018-Jun-20 22:00N 40°42' W 074°02'1 1.1
2018-Jun-20 21:30N 40°42' W 074°01'4 7.1
2018-Jun-20 21:01N 40°46' W 074°01'3 6.7
2018-Jun-20 20:31N 40°42' W 074°00'3 5.7
2018-Jun-20 19:54N 40°46' W 074°00'410.4
2018-Jun-20 19:30N 40°42' W 074°01'1 1.6
2018-Jun-20 19:00N 40°42' W 074°01'0 0.6
2018-Jun-20 18:31N 40°43' W 074°02'1 2.3
2018-Jun-20 18:00N 40°42' W 074°00'3 6.6
2018-Jun-20 17:29N 40°46' W 074°00'4 7.6
2018-Jun-20 17:00N 40°42' W 073°60'3 5.4
2018-Jun-20 16:31N 40°45' W 074°01'4 7.6
2018-Jun-20 16:01N 40°41' W 074°03'2 3.1
2018-Jun-20 15:31N 40°42' W 074°01'2 3.5
2018-Jun-20 15:00N 40°44' W 074°01'2 3.6
2018-Jun-20 14:30N 40°42' W 074°00'3 5.6
2018-Jun-20 13:53N 40°46' W 074°00'514.6
2018-Jun-20 13:30N 40°40' W 074°01'0 0.0
2018-Jun-20 13:00N 40°40' W 074°01'0 0.0
2018-Jun-20 12:30N 40°40' W 074°01'0 0.0
2018-Jun-20 00:13N 40°40' W 074°01'0 0.0
2018-Jun-20 00:00N 40°40' W 074°01'2 4.1
2018-Jun-19 23:30N 40°42' W 074°00'282.4
2018-Jun-19 23:29N 40°40' W 074°01'0 0.0
2018-Jun-19 23:00N 40°40' W 074°01'1 3.0
2018-Jun-19 22:31N 40°41' W 074°03'1160.7
2018-Jun-19 22:30N 40°40' W 074°01'2 3.8
2018-Jun-19 22:01N 40°42' W 074°01'26634.6
2018-Jun-19 22:00N 40°40' W 074°01'3 6.5
2018-Jun-19 21:30N 40°44' W 074°01'3 6.5
2018-Jun-19 21:00N 40°40' W 074°01'22443.0
2018-Jun-19 21:00N 40°42' W 074°00'2 4.0
2018-Jun-19 20:29N 40°40' W 074°01'5487.0
2018-Jun-19 20:29N 40°46' W 074°00'4 7.5
2018-Jun-19 20:00N 40°42' W 073°60'2748.9
2018-Jun-19 20:00N 40°40' W 074°01'4 8.8
2018-Jun-19 19:30N 40°45' W 074°01'4 8.8
2018-Jun-19 19:00N 40°40' W 074°01'2 4.2
2018-Jun-19 18:31N 40°42' W 074°00'21869.0
2018-Jun-19 18:30N 40°40' W 074°01'0 0.0
2018-Jun-19 18:00N 40°40' W 074°01'569.1
2018-Jun-19 17:55N 40°46' W 074°00'4 8.6
2018-Jun-19 17:31N 40°42' W 073°60'22448.5
2018-Jun-19 17:30N 40°40' W 074°01'3 6.9
2018-Jun-19 17:00N 40°44' W 074°01'31034.5
2018-Jun-19 17:00N 40°40' W 074°01'1 2.9
2018-Jun-19 16:30N 40°41' W 074°03'11758.1
2018-Jun-19 16:30N 40°40' W 074°01'0 0.0
2018-Jun-19 16:00N 40°40' W 074°01'26503.3
2018-Jun-19 16:00N 40°42' W 074°01'2 4.9
2018-Jun-19 15:30N 40°45' W 074°01'4306.3
2018-Jun-19 15:29N 40°40' W 074°01'0 0.0
2018-Jun-19 15:00N 40°40' W 074°01'2666.3
2018-Jun-19 15:00N 40°42' W 074°00'2 4.1
2018-Jun-19 14:30N 40°40' W 074°01'552.5
2018-Jun-19 14:24N 40°46' W 074°00'513.6
2018-Jun-19 14:00N 40°40' W 074°01'0 3.9
2018-Jun-19 14:00N 40°40' W 074°01'0 0.0
2018-Jun-19 13:30N 40°40' W 074°01'027.1
2018-Jun-19 13:30N 40°40' W 074°01'0 0.0
2018-Jun-19 13:00N 40°40' W 074°01'013.6
2018-Jun-19 13:00N 40°40' W 074°01'0 0.0
2018-Jun-19 12:30N 40°40' W 074°01'0 6.8
2018-Jun-19 12:30N 40°40' W 074°01'0 0.0
2018-Jun-19 12:00N 40°40' W 074°01'0 0.4
2018-Jun-19 11:59N 40°40' W 074°01'0 0.0
2018-Jun-19 11:30N 40°40' W 074°01'0 5.6
2018-Jun-19 11:30N 40°40' W 074°01'0 0.0
2018-Jun-19 11:00N 40°40' W 074°01'0 2.7
2018-Jun-19 11:00N 40°40' W 074°01'0 0.0
2018-Jun-19 10:30N 40°40' W 074°01'0 3.9
2018-Jun-19 10:30N 40°40' W 074°01'0 0.0
2018-Jun-19 10:01N 40°40' W 074°01'0 5.4
2018-Jun-19 10:00N 40°40' W 074°01'0 0.0
2018-Jun-19 09:31N 40°40' W 074°01'018.1
2018-Jun-19 09:30N 40°40' W 074°01'0 0.0
2018-Jun-19 09:01N 40°40' W 074°01'0 0.0
2018-Jun-19 08:30N 40°40' W 074°01'0 0.0
2018-Jun-19 08:00N 40°40' W 074°01'0 0.0
2018-Jun-19 07:30N 40°40' W 074°01'0 0.0
2018-Jun-19 07:00N 40°40' W 074°01'0 0.0
2018-Jun-19 06:30N 40°40' W 074°01'0 0.0
2018-Jun-19 06:01N 40°40' W 074°01'0 0.0
2018-Jun-19 05:30N 40°40' W 074°01'0 0.0
2018-Jun-19 05:01N 40°40' W 074°01'0 0.0
2018-Jun-19 04:30N 40°40' W 074°01'0 0.0
2018-Jun-19 04:00N 40°40' W 074°01'0 0.0
2018-Jun-19 03:30N 40°40' W 074°01'0 0.0
2018-Jun-19 03:00N 40°40' W 074°01'0 0.0
2018-Jun-19 02:31N 40°40' W 074°01'0 0.0
2018-Jun-19 02:00N 40°40' W 074°01'0 0.0
2018-Jun-19 01:30N 40°40' W 074°01'0 0.0
2018-Jun-19 01:00N 40°40' W 074°01'0 0.0
2018-Jun-19 00:30N 40°40' W 074°01'0 0.0
2018-Jun-19 00:00N 40°40' W 074°01'0 0.0
2018-Jun-18 23:31N 40°40' W 074°01'0 0.1
2018-Jun-18 23:23N 40°40' W 074°01'0 0.0
2018-Jun-18 23:00N 40°40' W 074°01'22205.2
2018-Jun-18 23:00N 40°42' W 074°01'1 2.2
2018-Jun-18 22:31N 40°43' W 074°02'310503.8
2018-Jun-18 22:31N 40°40' W 074°01'2 4.1
2018-Jun-18 22:00N 40°42' W 074°00'2160.0
2018-Jun-18 22:00N 40°40' W 074°01'0 0.0
2018-Jun-18 21:30N 40°40' W 074°01'5101.3
2018-Jun-18 21:27N 40°46' W 074°00'512.2
2018-Jun-18 21:00N 40°40' W 074°01'21050.4
2018-Jun-18 21:00N 40°42' W 073°60'3 5.1
2018-Jun-18 20:31N 40°45' W 074°01'415098.6
2018-Jun-18 20:31N 40°40' W 074°01'1 2.9
2018-Jun-18 20:01N 40°41' W 074°03'12631.8
2018-Jun-18 20:00N 40°40' W 074°01'2 3.7
2018-Jun-18 19:31N 40°42' W 074°01'26655.7
2018-Jun-18 19:30N 40°40' W 074°01'3 5.1
2018-Jun-18 19:01N 40°43' W 074°01'3221.8
2018-Jun-18 19:00N 40°40' W 074°01'2 3.7
2018-Jun-18 18:31N 40°42' W 074°00'23238.9
2018-Jun-18 18:30N 40°40' W 074°01'0 0.0
2018-Jun-18 18:00N 40°40' W 074°01'5203.5
2018-Jun-18 17:59N 40°46' W 074°00'4 7.5
2018-Jun-18 17:31N 40°42' W 073°60'2579.1
2018-Jun-18 17:30N 40°40' W 074°01'0 0.0
2018-Jun-18 17:00N 40°40' W 074°01'534.2
2018-Jun-18 16:51N 40°46' W 074°00'412.8
2018-Jun-18 16:31N 40°42' W 074°02'12662.0
2018-Jun-18 16:30N 40°40' W 074°01'0 0.0
2018-Jun-18 16:01N 40°40' W 074°01'0 0.0
2018-Jun-18 15:30N 40°40' W 074°01'415876.0
2018-Jun-18 15:30N 40°45' W 074°01'3 5.1
2018-Jun-18 15:00N 40°42' W 074°00'3 5.8
2018-Jun-18 14:24N 40°46' W 074°00'513.6
2018-Jun-18 14:00N 40°40' W 074°01'0 0.0
2018-Jun-18 13:30N 40°40' W 074°01'0 0.0
2018-Jun-18 13:00N 40°40' W 074°01'0 0.0
2018-Jun-18 12:30N 40°40' W 074°01'0 0.0
2018-Jun-18 12:00N 40°40' W 074°01'0 0.0
2018-Jun-18 11:30N 40°40' W 074°01'0 0.0
2018-Jun-18 01:41N 40°40' W 074°01'0 0.0
2018-Jun-18 01:30N 40°40' W 074°01'0 0.4
2018-Jun-18 01:01N 40°40' W 074°01'2 4.0
2018-Jun-18 00:30N 40°42' W 074°00'2 3.1
2018-Jun-18 00:00N 40°41' W 074°01'0 0.6
2018-Jun-17 23:30N 40°41' W 074°01'2 3.6
2018-Jun-17 23:00N 40°42' W 074°00'2 4.0
2018-Jun-17 22:30N 40°40' W 074°01'2 3.5
2018-Jun-17 22:00N 40°42' W 074°00'1 2.8
2018-Jun-17 21:30N 40°41' W 074°01'0 0.1
2018-Jun-17 21:00N 40°41' W 074°01'2 2.6
2018-Jun-17 20:25N 40°42' W 074°00'2 4.9
2018-Jun-17 20:00N 40°40' W 074°01'2 3.2
2018-Jun-17 19:28N 40°42' W 074°00'1 2.9
2018-Jun-17 19:00N 40°41' W 074°01'0 0.8
2018-Jun-17 18:30N 40°40' W 074°01'2 3.7
2018-Jun-17 17:59N 40°42' W 074°00'2 4.2
2018-Jun-17 17:30N 40°40' W 074°01'2 4.0
2018-Jun-17 17:00N 40°42' W 074°00'2 3.5
2018-Jun-17 16:30N 40°41' W 074°01'0 0.4
2018-Jun-17 16:00N 40°41' W 074°01'1 2.4
2018-Jun-17 15:25N 40°42' W 074°00'2 4.4
2018-Jun-17 14:59N 40°40' W 074°01'0 0.0
2018-Jun-16 23:13N 40°40' W 074°01'2 8.7
2018-Jun-16 23:00N 40°42' W 074°01'3 5.0
2018-Jun-16 22:30N 40°45' W 074°01'2 5.0
2018-Jun-16 22:01N 40°42' W 074°00'3 6.1
2018-Jun-16 21:26N 40°46' W 074°00'4 8.3
2018-Jun-16 21:00N 40°42' W 073°60'2 4.3
2018-Jun-16 20:31N 40°44' W 074°01'3 5.9
2018-Jun-16 20:00N 40°41' W 074°02'1 2.7
2018-Jun-16 19:31N 40°42' W 074°01'2 3.7
2018-Jun-16 19:01N 40°44' W 074°01'2 3.9
2018-Jun-16 18:30N 40°42' W 074°00'3 5.9
2018-Jun-16 17:55N 40°46' W 074°00'4 8.7
2018-Jun-16 17:30N 40°42' W 073°60'2 3.7
2018-Jun-16 17:01N 40°44' W 074°01'3 5.1
2018-Jun-16 16:30N 40°41' W 074°02'1 2.6
2018-Jun-16 16:01N 40°42' W 074°01'3 5.4
2018-Jun-16 15:31N 40°45' W 074°01'3 5.4
2018-Jun-16 15:01N 40°42' W 074°00'3 4.7
2018-Jun-16 14:16N 40°46' W 074°00'414.9
2018-Jun-16 14:01N 40°42' W 074°02'2 3.4
2018-Jun-16 13:30N 40°40' W 074°01'0 0.0
2018-Jun-15 22:09N 40°40' W 074°01'1 8.1
2018-Jun-15 22:01N 40°42' W 074°01'4 4.3
2018-Jun-15 21:00N 40°46' W 074°00'3 6.9
2018-Jun-15 20:30N 40°42' W 074°00'2 4.8
2018-Jun-15 20:01N 40°41' W 074°03'0 0.1
2018-Jun-15 19:31N 40°41' W 074°03'0 0.7
2018-Jun-15 19:00N 40°41' W 074°03'2 4.4
2018-Jun-15 18:30N 40°42' W 074°00'2 4.1
2018-Jun-15 18:00N 40°40' W 074°01'0 0.0
2018-Jun-15 16:24N 40°40' W 074°01'511.7
2018-Jun-15 16:00N 40°36' W 074°02'5 0.3
2018-Jun-15 00:47N 40°40' W 074°01'2 8.6
2018-Jun-15 00:30N 40°42' W 073°59'1 1.3
2018-Jun-15 00:00N 40°42' W 074°00'1 2.4
2018-Jun-14 23:30N 40°42' W 073°59'1 2.2
2018-Jun-14 23:00N 40°42' W 074°00'1 2.2
2018-Jun-14 22:30N 40°42' W 073°59'1 2.1
2018-Jun-14 22:00N 40°42' W 074°00'0 0.3
2018-Jun-14 21:30N 40°42' W 073°60'2 4.4
2018-Jun-14 21:00N 40°40' W 074°01'0 0.1
2018-Jun-14 20:31N 40°40' W 074°01'0 0.0
2018-Jun-14 20:01N 40°40' W 074°01'0 0.0
2018-Jun-14 16:34N 40°40' W 074°01'0 0.0
2018-Jun-14 16:30N 40°40' W 074°01'0 0.0
2018-Jun-14 16:01N 40°40' W 074°01'0 0.0
2018-Jun-14 15:30N 40°40' W 074°01'0 0.0
2018-Jun-14 15:00N 40°40' W 074°01'0 0.0
2018-Jun-14 14:30N 40°40' W 074°01'0 0.0
2018-Jun-14 14:00N 40°40' W 074°01'0 0.0
2018-Jun-14 13:30N 40°40' W 074°01'0 0.0
2018-Jun-14 13:00N 40°40' W 074°01'0 0.0
2018-Jun-14 12:30N 40°40' W 074°01'0 0.0
2018-Jun-14 12:00N 40°40' W 074°01'0 0.0
2018-Jun-14 11:30N 40°40' W 074°01'0 0.0
2018-Jun-14 11:01N 40°40' W 074°01'0 0.0
2018-Jun-14 10:30N 40°40' W 074°01'0 0.0
2018-Jun-13 17:09N 40°40' W 074°01'0 0.0
2018-Jun-13 17:01N 40°40' W 074°01'0 0.0
2018-Jun-13 16:31N 40°40' W 074°01'0 0.0
2018-Jun-13 14:39N 40°40' W 074°01'0 0.0
2018-Jun-13 14:31N 40°40' W 074°01'0 0.0
2018-Jun-13 14:00N 40°40' W 074°01'0 0.0
2018-Jun-13 13:30N 40°40' W 074°01'0 0.0
2018-Jun-13 13:00N 40°40' W 074°01'0 0.0
2018-Jun-13 12:30N 40°40' W 074°01'0 0.0
2018-Jun-13 12:01N 40°40' W 074°01'0 0.0
2018-Jun-13 01:17N 40°40' W 074°01'310.6
2018-Jun-13 01:01N 40°43' W 074°01'9 3.1
2018-Jun-12 22:01N 40°52' W 073°56'126.7
2018-Jun-12 22:00N 40°51' W 073°57'612.5
2018-Jun-12 21:30N 40°46' W 074°00'0 0.0
2018-Jun-12 20:52N 40°46' W 074°00'3 8.8
2018-Jun-12 20:31N 40°43' W 074°01'1 2.8
2018-Jun-12 20:00N 40°42' W 074°02'1 2.4
2018-Jun-12 19:30N 40°42' W 074°01'2 4.7
2018-Jun-12 19:01N 40°45' W 074°01'2 4.7
2018-Jun-12 18:31N 40°42' W 074°00'3 6.1
2018-Jun-12 17:56N 40°46' W 074°00'4 8.2
2018-Jun-12 17:30N 40°42' W 073°60'3 5.8
2018-Jun-12 17:01N 40°45' W 074°01'4 7.3
2018-Jun-12 16:31N 40°41' W 074°02'2 5.0
2018-Jun-12 16:00N 40°44' W 074°01'1 1.4
2018-Jun-12 15:30N 40°43' W 074°02'1 2.7
2018-Jun-12 15:01N 40°42' W 074°01'4 7.8
2018-Jun-12 14:30N 40°46' W 074°00'511.0
2018-Jun-12 14:00N 40°40' W 074°01'0 0.0
2018-Jun-12 13:30N 40°40' W 074°01'  

Dump ship's entire track history